sensor_id;sensor_type;location;lat;lon;timestamp;pressure;altitude;pressure_sealevel;temperature;humidity
21361;BME280;10839;43.206;23.550;2023-04-06T00:00:00;96906.78;;;3.48;100.00
21361;BME280;10839;43.206;23.550;2023-04-06T00:02:27;96903.03;;;3.33;100.00
21361;BME280;10839;43.206;23.550;2023-04-06T00:04:52;96912.66;;;3.26;100.00
21361;BME280;10839;43.206;23.550;2023-04-06T00:07:18;96899.91;;;3.12;100.00
21361;BME280;10839;43.206;23.550;2023-04-06T00:09:45;96896.13;;;3.40;100.00
21361;BME280;10839;43.206;23.550;2023-04-06T00:12:10;96899.50;;;3.50;100.00
21361;BME280;10839;43.206;23.550;2023-04-06T00:14:36;96890.63;;;3.41;100.00
21361;BME280;10839;43.206;23.550;2023-04-06T00:17:02;96893.72;;;3.29;100.00
21361;BME280;10839;43.206;23.550;2023-04-06T00:19:28;96877.09;;;3.27;100.00
21361;BME280;10839;43.206;23.550;2023-04-06T00:21:54;96880.00;;;3.41;100.00
21361;BME280;10839;43.206;23.550;2023-04-06T00:24:20;96873.22;;;3.47;100.00
21361;BME280;10839;43.206;23.550;2023-04-06T00:26:46;96881.63;;;3.68;100.00
21361;BME280;10839;43.206;23.550;2023-04-06T00:29:12;96873.69;;;3.76;100.00
21361;BME280;10839;43.206;23.550;2023-04-06T00:31:38;96873.69;;;3.76;100.00
21361;BME280;10839;43.206;23.550;2023-04-06T00:34:05;96882.72;;;3.83;100.00
21361;BME280;10839;43.206;23.550;2023-04-06T00:36:31;96884.50;;;3.74;100.00
21361;BME280;10839;43.206;23.550;2023-04-06T00:38:57;96882.38;;;3.86;100.00
21361;BME280;10839;43.206;23.550;2023-04-06T00:41:23;96878.13;;;4.01;100.00
21361;BME280;10839;43.206;23.550;2023-04-06T00:43:50;96882.66;;;3.67;100.00
21361;BME280;10839;43.206;23.550;2023-04-06T00:46:16;96878.53;;;3.72;100.00
21361;BME280;10839;43.206;23.550;2023-04-06T00:48:42;96879.94;;;3.59;100.00
21361;BME280;10839;43.206;23.550;2023-04-06T00:51:08;96873.22;;;3.72;100.00
21361;BME280;10839;43.206;23.550;2023-04-06T00:53:34;96885.22;;;3.51;100.00
21361;BME280;10839;43.206;23.550;2023-04-06T00:56:01;96884.25;;;3.60;100.00
21361;BME280;10839;43.206;23.550;2023-04-06T00:58:32;96876.31;;;3.68;100.00
21361;BME280;10839;43.206;23.550;2023-04-06T01:01:04;96873.75;;;3.50;100.00
21361;BME280;10839;43.206;23.550;2023-04-06T01:03:33;96867.69;;;3.66;100.00
21361;BME280;10839;43.206;23.550;2023-04-06T01:05:59;96876.72;;;3.81;100.00
21361;BME280;10839;43.206;23.550;2023-04-06T01:08:32;96872.19;;;4.23;96.15
21361;BME280;10839;43.206;23.550;2023-04-06T01:11:11;96868.16;;;4.11;96.04
21361;BME280;10839;43.206;23.550;2023-04-06T01:13:37;96869.47;;;3.99;96.90
21361;BME280;10839;43.206;23.550;2023-04-06T01:16:07;96867.00;;;4.06;95.72
21361;BME280;10839;43.206;23.550;2023-04-06T01:18:51;96871.38;;;3.81;97.84
21361;BME280;10839;43.206;23.550;2023-04-06T01:21:30;96859.88;;;4.14;96.98
21361;BME280;10839;43.206;23.550;2023-04-06T01:24:11;96854.91;;;4.19;96.02
21361;BME280;10839;43.206;23.550;2023-04-06T01:26:57;96861.91;;;4.36;95.35
21361;BME280;10839;43.206;23.550;2023-04-06T01:29:24;96857.25;;;4.46;95.19
21361;BME280;10839;43.206;23.550;2023-04-06T01:31:50;96856.25;;;4.39;94.39
21361;BME280;10839;43.206;23.550;2023-04-06T01:34:16;96855.91;;;4.34;94.30
21361;BME280;10839;43.206;23.550;2023-04-06T01:36:42;96850.28;;;4.45;95.90
21361;BME280;10839;43.206;23.550;2023-04-06T01:39:28;96853.97;;;4.68;94.48
21361;BME280;10839;43.206;23.550;2023-04-06T01:41:55;96855.63;;;4.61;94.28
21361;BME280;10839;43.206;23.550;2023-04-06T01:44:21;96846.31;;;4.57;95.60
21361;BME280;10839;43.206;23.550;2023-04-06T01:46:55;96846.78;;;4.61;97.18
21361;BME280;10839;43.206;23.550;2023-04-06T01:49:22;96839.31;;;4.80;95.54
21361;BME280;10839;43.206;23.550;2023-04-06T01:51:53;96846.63;;;4.78;96.26
21361;BME280;10839;43.206;23.550;2023-04-06T01:54:20;96838.47;;;4.80;97.53
21361;BME280;10839;43.206;23.550;2023-04-06T01:57:06;96829.97;;;4.76;98.37
21361;BME280;10839;43.206;23.550;2023-04-06T01:59:39;96840.97;;;4.81;97.89
21361;BME280;10839;43.206;23.550;2023-04-06T02:02:12;96824.47;;;4.78;97.93
21361;BME280;10839;43.206;23.550;2023-04-06T02:04:42;96838.97;;;4.91;96.98
21361;BME280;10839;43.206;23.550;2023-04-06T02:07:13;96833.81;;;4.90;96.85
21361;BME280;10839;43.206;23.550;2023-04-06T02:09:38;96836.63;;;5.04;96.83
21361;BME280;10839;43.206;23.550;2023-04-06T02:12:09;96833.28;;;5.02;97.08
21361;BME280;10839;43.206;23.550;2023-04-06T02:14:35;96836.66;;;4.88;94.94
21361;BME280;10839;43.206;23.550;2023-04-06T02:17:01;96835.13;;;4.78;95.71
21361;BME280;10839;43.206;23.550;2023-04-06T02:19:27;96837.50;;;4.89;95.90
21361;BME280;10839;43.206;23.550;2023-04-06T02:21:53;96840.28;;;4.87;94.74
21361;BME280;10839;43.206;23.550;2023-04-06T02:24:19;96829.13;;;5.00;94.66
21361;BME280;10839;43.206;23.550;2023-04-06T02:26:44;96822.97;;;4.99;93.61
21361;BME280;10839;43.206;23.550;2023-04-06T02:29:10;96828.78;;;5.03;93.75
21361;BME280;10839;43.206;23.550;2023-04-06T02:31:37;96841.28;;;5.10;93.69
21361;BME280;10839;43.206;23.550;2023-04-06T02:34:04;96838.63;;;5.02;94.76
21361;BME280;10839;43.206;23.550;2023-04-06T02:36:31;96838.63;;;5.02;96.35
21361;BME280;10839;43.206;23.550;2023-04-06T02:38:57;96833.13;;;5.12;96.10
21361;BME280;10839;43.206;23.550;2023-04-06T02:41:24;96828.31;;;4.83;97.53
21361;BME280;10839;43.206;23.550;2023-04-06T02:43:49;96839.63;;;4.93;97.01
21361;BME280;10839;43.206;23.550;2023-04-06T02:46:26;96832.63;;;4.84;95.60
21361;BME280;10839;43.206;23.550;2023-04-06T02:48:52;96834.31;;;4.85;93.39
21361;BME280;10839;43.206;23.550;2023-04-06T02:51:18;96833.97;;;4.56;92.94
21361;BME280;10839;43.206;23.550;2023-04-06T02:53:50;96836.31;;;4.75;93.58
21361;BME280;10839;43.206;23.550;2023-04-06T02:56:16;96835.63;;;4.81;91.95
21361;BME280;10839;43.206;23.550;2023-04-06T02:58:47;96838.63;;;4.54;93.88
21361;BME280;10839;43.206;23.550;2023-04-06T03:01:13;96838.63;;;4.54;95.14
21361;BME280;10839;43.206;23.550;2023-04-06T03:03:41;96832.97;;;4.73;93.04
21361;BME280;10839;43.206;23.550;2023-04-06T03:06:13;96836.63;;;4.56;90.79
21361;BME280;10839;43.206;23.550;2023-04-06T03:08:39;96830.97;;;4.59;91.36
21361;BME280;10839;43.206;23.550;2023-04-06T03:11:05;96838.28;;;4.89;90.45
21361;BME280;10839;43.206;23.550;2023-04-06T03:13:37;96832.31;;;4.79;90.05
21361;BME280;10839;43.206;23.550;2023-04-06T03:16:06;96835.97;;;4.46;95.39
21361;BME280;10839;43.206;23.550;2023-04-06T03:18:33;96822.81;;;4.93;94.25
21361;BME280;10839;43.206;23.550;2023-04-06T03:20:59;96835.63;;;4.81;93.51
21361;BME280;10839;43.206;23.550;2023-04-06T03:23:38;96832.16;;;4.41;96.10
21361;BME280;10839;43.206;23.550;2023-04-06T03:26:05;96831.63;;;4.69;95.28
21361;BME280;10839;43.206;23.550;2023-04-06T03:28:31;96831.66;;;4.85;91.98
21361;BME280;10839;43.206;23.550;2023-04-06T03:31:03;96834.97;;;4.55;93.29
21361;BME280;10839;43.206;23.550;2023-04-06T03:33:45;96836.81;;;4.79;92.73
21361;BME280;10839;43.206;23.550;2023-04-06T03:36:21;96831.31;;;4.80;91.25
21361;BME280;10839;43.206;23.550;2023-04-06T03:38:47;96834.47;;;4.68;89.38
21361;BME280;10839;43.206;23.550;2023-04-06T03:41:14;96832.31;;;4.63;90.61
21361;BME280;10839;43.206;23.550;2023-04-06T03:43:45;96832.31;;;4.95;87.88
21361;BME280;10839;43.206;23.550;2023-04-06T03:46:11;96833.31;;;4.86;86.79
21361;BME280;10839;43.206;23.550;2023-04-06T03:48:37;96835.31;;;4.60;87.24
21361;BME280;10839;43.206;23.550;2023-04-06T03:51:05;96830.13;;;5.07;84.33
21361;BME280;10839;43.206;23.550;2023-04-06T03:53:35;96832.28;;;4.87;84.80
21361;BME280;10839;43.206;23.550;2023-04-06T03:56:02;96829.31;;;4.90;85.27
21361;BME280;10839;43.206;23.550;2023-04-06T03:58:28;96828.78;;;5.03;85.53
21361;BME280;10839;43.206;23.550;2023-04-06T04:00:54;96831.31;;;4.96;85.07
21361;BME280;10839;43.206;23.550;2023-04-06T04:03:20;96841.13;;;4.88;85.33
21361;BME280;10839;43.206;23.550;2023-04-06T04:05:49;96832.00;;;4.82;86.05
21361;BME280;10839;43.206;23.550;2023-04-06T04:08:16;96834.97;;;5.03;86.25
21361;BME280;10839;43.206;23.550;2023-04-06T04:10:42;96833.94;;;5.20;85.00
21361;BME280;10839;43.206;23.550;2023-04-06T04:13:08;96837.97;;;4.84;84.43
21361;BME280;10839;43.206;23.550;2023-04-06T04:15:34;96827.28;;;4.92;85.87
21361;BME280;10839;43.206;23.550;2023-04-06T04:18:00;96838.31;;;5.05;84.32
21361;BME280;10839;43.206;23.550;2023-04-06T04:20:26;96830.63;;;4.94;84.41
21361;BME280;10839;43.206;23.550;2023-04-06T04:22:52;96835.47;;;4.91;85.81
21361;BME280;10839;43.206;23.550;2023-04-06T04:25:18;96838.63;;;5.18;85.33
21361;BME280;10839;43.206;23.550;2023-04-06T04:27:47;96833.94;;;5.12;83.52
21361;BME280;10839;43.206;23.550;2023-04-06T04:30:13;96836.47;;;4.98;85.94
21361;BME280;10839;43.206;23.550;2023-04-06T04:32:41;96836.47;;;5.14;85.73
21361;BME280;10839;43.206;23.550;2023-04-06T04:35:09;96835.44;;;5.23;85.44
21361;BME280;10839;43.206;23.550;2023-04-06T04:37:38;96826.59;;;5.14;85.33
21361;BME280;10839;43.206;23.550;2023-04-06T04:40:05;96835.44;;;5.23;85.70
21361;BME280;10839;43.206;23.550;2023-04-06T04:42:41;96836.28;;;5.23;84.54
21361;BME280;10839;43.206;23.550;2023-04-06T04:45:12;96844.44;;;5.22;83.18
21361;BME280;10839;43.206;23.550;2023-04-06T04:47:40;96832.94;;;5.21;83.39
21361;BME280;10839;43.206;23.550;2023-04-06T04:50:07;96840.91;;;5.30;83.72
21361;BME280;10839;43.206;23.550;2023-04-06T04:52:37;96832.56;;;5.33;82.15
21361;BME280;10839;43.206;23.550;2023-04-06T04:55:19;96833.28;;;5.18;83.38
21361;BME280;10839;43.206;23.550;2023-04-06T04:57:48;96835.22;;;5.33;82.42
21361;BME280;10839;43.206;23.550;2023-04-06T05:00:17;96833.63;;;5.15;80.91
21361;BME280;10839;43.206;23.550;2023-04-06T05:02:44;96837.56;;;5.28;81.48
21361;BME280;10839;43.206;23.550;2023-04-06T05:05:17;96830.25;;;5.30;82.21
21361;BME280;10839;43.206;23.550;2023-04-06T05:07:43;96835.88;;;5.43;80.77
21361;BME280;10839;43.206;23.550;2023-04-06T05:10:16;96835.28;;;5.16;79.71
21361;BME280;10839;43.206;23.550;2023-04-06T05:12:51;96826.53;;;5.47;78.74
21361;BME280;10839;43.206;23.550;2023-04-06T05:15:18;96828.19;;;5.48;78.13
21361;BME280;10839;43.206;23.550;2023-04-06T05:17:44;96830.75;;;5.33;77.19
21361;BME280;10839;43.206;23.550;2023-04-06T05:20:14;96836.22;;;5.40;77.75
21361;BME280;10839;43.206;23.550;2023-04-06T05:22:48;96842.13;;;5.66;77.50
21361;BME280;10839;43.206;23.550;2023-04-06T05:25:14;96832.25;;;5.82;76.06
21361;BME280;10839;43.206;23.550;2023-04-06T05:27:41;96834.66;;;5.61;76.33
21361;BME280;10839;43.206;23.550;2023-04-06T05:30:20;96841.25;;;5.81;75.34
21361;BME280;10839;43.206;23.550;2023-04-06T05:32:47;96842.81;;;5.84;75.06
21361;BME280;10839;43.206;23.550;2023-04-06T05:35:14;96839.50;;;5.58;76.77
21361;BME280;10839;43.206;23.550;2023-04-06T05:37:44;96823.41;;;5.90;75.57
21361;BME280;10839;43.206;23.550;2023-04-06T05:40:10;96824.88;;;6.00;75.16
21361;BME280;10839;43.206;23.550;2023-04-06T05:42:40;96826.75;;;5.76;74.95
21361;BME280;10839;43.206;23.550;2023-04-06T05:45:07;96824.03;;;6.00;73.63
21361;BME280;10839;43.206;23.550;2023-04-06T05:47:34;96825.25;;;6.20;73.26
21361;BME280;10839;43.206;23.550;2023-04-06T05:50:14;96814.19;;;6.00;72.31
21361;BME280;10839;43.206;23.550;2023-04-06T05:52:41;96815.75;;;5.79;73.35
21361;BME280;10839;43.206;23.550;2023-04-06T05:55:11;96815.53;;;6.27;71.69
21361;BME280;10839;43.206;23.550;2023-04-06T05:57:40;96813.25;;;6.16;71.39
21361;BME280;10839;43.206;23.550;2023-04-06T06:00:07;96806.72;;;5.88;72.99
21361;BME280;10839;43.206;23.550;2023-04-06T06:02:38;96805.91;;;6.40;72.14
21361;BME280;10839;43.206;23.550;2023-04-06T06:05:08;96805.13;;;6.77;70.97
21361;BME280;10839;43.206;23.550;2023-04-06T06:07:35;96800.56;;;6.18;72.56
21361;BME280;10839;43.206;23.550;2023-04-06T06:10:02;96812.88;;;6.19;74.22
21361;BME280;10839;43.206;23.550;2023-04-06T06:12:32;96810.25;;;6.64;73.06
21361;BME280;10839;43.206;23.550;2023-04-06T06:14:59;96810.13;;;6.58;72.37
21361;BME280;10839;43.206;23.550;2023-04-06T06:17:27;96799.09;;;6.07;75.63
21361;BME280;10839;43.206;23.550;2023-04-06T06:19:54;96800.94;;;6.60;74.29
21361;BME280;10839;43.206;23.550;2023-04-06T06:22:20;96803.28;;;7.00;72.69
21361;BME280;10839;43.206;23.550;2023-04-06T06:24:47;96794.75;;;6.60;73.75
21361;BME280;10839;43.206;23.550;2023-04-06T06:27:14;96797.28;;;6.76;74.59
21361;BME280;10839;43.206;23.550;2023-04-06T06:29:41;96800.41;;;7.02;73.37
21361;BME280;10839;43.206;23.550;2023-04-06T06:32:07;96802.91;;;6.81;73.80
21361;BME280;10839;43.206;23.550;2023-04-06T06:34:36;96798.66;;;6.72;74.78
21361;BME280;10839;43.206;23.550;2023-04-06T06:37:04;96798.94;;;7.14;74.31
21361;BME280;10839;43.206;23.550;2023-04-06T06:39:30;96787.72;;;7.18;72.62
21361;BME280;10839;43.206;23.550;2023-04-06T06:41:56;96795.09;;;6.94;73.84
21361;BME280;10839;43.206;23.550;2023-04-06T06:44:41;96790.47;;;7.54;72.56
21361;BME280;10839;43.206;23.550;2023-04-06T06:47:07;96791.28;;;7.83;71.26
21361;BME280;10839;43.206;23.550;2023-04-06T06:49:33;96797.06;;;7.37;70.71
21361;BME280;10839;43.206;23.550;2023-04-06T06:51:59;96791.56;;;7.74;70.81
21361;BME280;10839;43.206;23.550;2023-04-06T06:54:25;96800.03;;;8.07;68.02
21361;BME280;10839;43.206;23.550;2023-04-06T06:56:51;96805.47;;;7.99;67.04
21361;BME280;10839;43.206;23.550;2023-04-06T06:59:17;96799.25;;;7.92;65.30
21361;BME280;10839;43.206;23.550;2023-04-06T07:01:43;96799.63;;;8.60;62.60
21361;BME280;10839;43.206;23.550;2023-04-06T07:04:09;96813.59;;;8.55;61.67
21361;BME280;10839;43.206;23.550;2023-04-06T07:06:36;96802.06;;;8.05;63.90
21361;BME280;10839;43.206;23.550;2023-04-06T07:09:02;96803.72;;;8.56;63.86
21361;BME280;10839;43.206;23.550;2023-04-06T07:11:29;96801.63;;;9.00;63.56
21361;BME280;10839;43.206;23.550;2023-04-06T07:13:56;96794.66;;;8.78;62.05
21361;BME280;10839;43.206;23.550;2023-04-06T07:16:21;96806.97;;;8.51;62.90
21361;BME280;10839;43.206;23.550;2023-04-06T07:18:47;96812.09;;;9.16;60.42
21361;BME280;10839;43.206;23.550;2023-04-06T07:21:13;96805.78;;;9.30;60.21
21361;BME280;10839;43.206;23.550;2023-04-06T07:23:39;96809.81;;;8.92;60.59
21361;BME280;10839;43.206;23.550;2023-04-06T07:26:06;96803.59;;;8.85;60.56
21361;BME280;10839;43.206;23.550;2023-04-06T07:28:32;96800.44;;;9.30;56.80
21361;BME280;10839;43.206;23.550;2023-04-06T07:31:00;96802.28;;;9.57;56.09
21361;BME280;10839;43.206;23.550;2023-04-06T07:33:27;96802.84;;;9.46;57.04
21361;BME280;10839;43.206;23.550;2023-04-06T07:35:56;96799.59;;;10.39;55.21
21361;BME280;10839;43.206;23.550;2023-04-06T07:38:24;96805.09;;;11.30;51.80
21361;BME280;10839;43.206;23.550;2023-04-06T07:40:51;96799.59;;;10.45;52.19
21361;BME280;10839;43.206;23.550;2023-04-06T07:43:17;96791.38;;;10.60;50.98
21361;BME280;10839;43.206;23.550;2023-04-06T07:45:43;96787.53;;;12.17;47.74
21361;BME280;10839;43.206;23.550;2023-04-06T07:48:10;96794.88;;;11.97;47.05
21361;BME280;10839;43.206;23.550;2023-04-06T07:50:36;96781.91;;;11.16;48.74
21361;BME280;10839;43.206;23.550;2023-04-06T07:53:03;96780.09;;;12.06;47.70
21361;BME280;10839;43.206;23.550;2023-04-06T07:55:30;96803.28;;;13.02;45.49
21361;BME280;10839;43.206;23.550;2023-04-06T07:57:55;96781.28;;;12.23;46.04
21361;BME280;10839;43.206;23.550;2023-04-06T08:00:21;96792.63;;;12.38;47.20
21361;BME280;10839;43.206;23.550;2023-04-06T08:02:47;96777.59;;;12.86;45.37
21361;BME280;10839;43.206;23.550;2023-04-06T08:05:13;96785.00;;;12.66;45.66
21361;BME280;10839;43.206;23.550;2023-04-06T08:07:39;96786.03;;;11.64;47.62
21361;BME280;10839;43.206;23.550;2023-04-06T08:10:05;96793.59;;;12.50;44.76
21361;BME280;10839;43.206;23.550;2023-04-06T08:12:32;96791.88;;;13.25;43.58
21361;BME280;10839;43.206;23.550;2023-04-06T08:14:59;96781.88;;;11.68;46.49
21361;BME280;10839;43.206;23.550;2023-04-06T08:17:25;96788.50;;;11.72;47.24
21361;BME280;10839;43.206;23.550;2023-04-06T08:19:53;96778.75;;;13.04;44.93
21361;BME280;10839;43.206;23.550;2023-04-06T08:22:18;96779.41;;;12.61;44.16
21361;BME280;10839;43.206;23.550;2023-04-06T08:24:44;96779.88;;;12.08;45.78
21361;BME280;10839;43.206;23.550;2023-04-06T08:27:10;96783.50;;;13.33;43.09
21361;BME280;10839;43.206;23.550;2023-04-06T08:29:36;96781.50;;;15.02;39.74
21361;BME280;10839;43.206;23.550;2023-04-06T08:32:02;96776.53;;;13.68;40.72
21361;BME280;10839;43.206;23.550;2023-04-06T08:34:32;96776.00;;;14.79;38.92
21361;BME280;10839;43.206;23.550;2023-04-06T08:36:58;96776.13;;;15.25;38.46
21361;BME280;10839;43.206;23.550;2023-04-06T08:39:24;96773.63;;;16.39;36.03
21361;BME280;10839;43.206;23.550;2023-04-06T08:41:52;96764.63;;;15.88;36.41
21361;BME280;10839;43.206;23.550;2023-04-06T08:44:18;96767.69;;;16.03;36.10
21361;BME280;10839;43.206;23.550;2023-04-06T08:46:44;96755.56;;;17.01;34.14
21361;BME280;10839;43.206;23.550;2023-04-06T08:49:10;96760.38;;;17.44;33.46
21361;BME280;10839;43.206;23.550;2023-04-06T08:51:37;96763.47;;;18.62;32.68
21361;BME280;10839;43.206;23.550;2023-04-06T08:54:04;96765.69;;;17.50;32.99
21361;BME280;10839;43.206;23.550;2023-04-06T08:56:30;96760.56;;;16.25;34.21
21361;BME280;10839;43.206;23.550;2023-04-06T08:58:57;96768.13;;;16.23;34.34
21361;BME280;10839;43.206;23.550;2023-04-06T09:01:27;96766.84;;;16.65;33.56
21361;BME280;10839;43.206;23.550;2023-04-06T09:03:58;96771.00;;;16.84;32.41
21361;BME280;10839;43.206;23.550;2023-04-06T09:06:26;96758.03;;;15.84;33.11
21361;BME280;10839;43.206;23.550;2023-04-06T09:08:56;96753.47;;;16.63;33.28
21361;BME280;10839;43.206;23.550;2023-04-06T09:11:23;96745.00;;;18.04;31.29
21361;BME280;10839;43.206;23.550;2023-04-06T09:13:53;96744.34;;;17.97;31.62
21361;BME280;10839;43.206;23.550;2023-04-06T09:16:20;96735.69;;;18.22;31.19
21361;BME280;10839;43.206;23.550;2023-04-06T09:18:47;96742.69;;;18.56;30.60
21361;BME280;10839;43.206;23.550;2023-04-06T09:21:17;96734.06;;;18.90;29.88
21361;BME280;10839;43.206;23.550;2023-04-06T09:23:43;96738.88;;;18.57;29.52
21361;BME280;10839;43.206;23.550;2023-04-06T09:26:10;96740.59;;;18.20;30.21
21361;BME280;10839;43.206;23.550;2023-04-06T09:28:50;96738.50;;;17.88;30.33
21361;BME280;10839;43.206;23.550;2023-04-06T09:31:30;96735.69;;;18.22;30.19
21361;BME280;10839;43.206;23.550;2023-04-06T09:33:59;96727.09;;;18.30;30.31
21361;BME280;10839;43.206;23.550;2023-04-06T09:36:33;96739.03;;;18.07;30.16
21361;BME280;10839;43.206;23.550;2023-04-06T09:39:03;96732.25;;;18.48;29.83
21361;BME280;10839;43.206;23.550;2023-04-06T09:41:31;96726.16;;;18.89;29.70
21361;BME280;10839;43.206;23.550;2023-04-06T09:44:11;96727.09;;;18.99;29.40
21361;BME280;10839;43.206;23.550;2023-04-06T09:46:39;96732.53;;;18.73;29.83
21361;BME280;10839;43.206;23.550;2023-04-06T09:49:07;96728.97;;;18.08;30.40
21361;BME280;10839;43.206;23.550;2023-04-06T09:51:41;96723.78;;;17.68;30.66
21361;BME280;10839;43.206;23.550;2023-04-06T09:54:11;96730.06;;;16.74;31.66
21361;BME280;10839;43.206;23.550;2023-04-06T09:56:51;96722.34;;;16.54;32.15
21361;BME280;10839;43.206;23.550;2023-04-06T10:02:04;96726.72;;;16.44;32.87
21361;BME280;10839;43.206;23.550;2023-04-06T10:04:42;96716.28;;;15.85;33.27
21361;BME280;10839;43.206;23.550;2023-04-06T10:07:09;96714.59;;;14.50;35.08
21361;BME280;10839;43.206;23.550;2023-04-06T10:09:42;96720.47;;;14.88;35.17
21361;BME280;10839;43.206;23.550;2023-04-06T10:12:09;96717.94;;;15.40;34.79
21361;BME280;10839;43.206;23.550;2023-04-06T10:14:36;96713.38;;;14.87;35.67
21361;BME280;10839;43.206;23.550;2023-04-06T10:17:06;96712.66;;;14.21;36.21
21361;BME280;10839;43.206;23.550;2023-04-06T10:22:02;96721.19;;;13.28;38.12
21361;BME280;10839;43.206;23.550;2023-04-06T10:24:30;96719.44;;;13.15;39.24
21361;BME280;10839;43.206;23.550;2023-04-06T10:27:03;96718.03;;;13.55;38.24
21361;BME280;10839;43.206;23.550;2023-04-06T10:29:45;96718.97;;;13.61;38.54
21361;BME280;10839;43.206;23.550;2023-04-06T10:32:12;96722.69;;;12.37;40.30
21361;BME280;10839;43.206;23.550;2023-04-06T10:34:37;96718.38;;;12.92;39.88
21361;BME280;10839;43.206;23.550;2023-04-06T10:37:14;96706.31;;;13.19;38.44
21361;BME280;10839;43.206;23.550;2023-04-06T10:39:53;96706.81;;;12.53;39.78
21361;BME280;10839;43.206;23.550;2023-04-06T10:42:24;96708.09;;;12.44;40.31
21361;BME280;10839;43.206;23.550;2023-04-06T10:44:51;96706.19;;;12.82;40.32
21361;BME280;10839;43.206;23.550;2023-04-06T10:47:17;96696.25;;;12.76;40.32
21361;BME280;10839;43.206;23.550;2023-04-06T10:49:43;96707.09;;;12.01;42.33
21361;BME280;10839;43.206;23.550;2023-04-06T10:52:09;96695.44;;;13.01;40.71
21361;BME280;10839;43.206;23.550;2023-04-06T10:54:41;96704.22;;;13.21;40.19
21361;BME280;10839;43.206;23.550;2023-04-06T10:57:08;96697.47;;;12.56;41.52
21361;BME280;10839;43.206;23.550;2023-04-06T10:59:35;96705.78;;;12.17;41.37
21361;BME280;10839;43.206;23.550;2023-04-06T11:02:01;96705.41;;;12.44;41.01
21361;BME280;10839;43.206;23.550;2023-04-06T11:04:26;96698.28;;;12.25;41.05
21361;BME280;10839;43.206;23.550;2023-04-06T11:06:53;96702.66;;;11.76;42.38
21361;BME280;10839;43.206;23.550;2023-04-06T11:09:27;96692.34;;;12.41;41.77
21361;BME280;10839;43.206;23.550;2023-04-06T11:11:54;96683.38;;;12.78;40.71
21361;BME280;10839;43.206;23.550;2023-04-06T11:14:21;96696.19;;;11.83;41.73
21361;BME280;10839;43.206;23.550;2023-04-06T11:16:48;96695.78;;;11.80;42.61
21361;BME280;10839;43.206;23.550;2023-04-06T11:19:15;96689.13;;;12.26;41.80
21361;BME280;10839;43.206;23.550;2023-04-06T11:21:44;96693.22;;;11.40;42.71
21361;BME280;10839;43.206;23.550;2023-04-06T11:24:18;96679.50;;;11.48;43.06
21361;BME280;10839;43.206;23.550;2023-04-06T11:26:48;96696.00;;;11.78;41.77
21361;BME280;10839;43.206;23.550;2023-04-06T11:29:21;96691.16;;;11.36;42.50
21361;BME280;10839;43.206;23.550;2023-04-06T11:31:53;96693.22;;;11.34;43.30
21361;BME280;10839;43.206;23.550;2023-04-06T11:34:22;96688.63;;;11.54;42.87
21361;BME280;10839;43.206;23.550;2023-04-06T11:36:49;96693.97;;;11.60;42.61
21361;BME280;10839;43.206;23.550;2023-04-06T11:39:21;96691.34;;;11.28;43.48
21361;BME280;10839;43.206;23.550;2023-04-06T11:41:59;96691.03;;;11.75;42.36
21361;BME280;10839;43.206;23.550;2023-04-06T11:44:45;96689.78;;;11.84;42.65
21361;BME280;10839;43.206;23.550;2023-04-06T11:47:15;96691.16;;;11.36;43.80
21361;BME280;10839;43.206;23.550;2023-04-06T11:49:42;96683.13;;;11.87;43.61
21361;BME280;10839;43.206;23.550;2023-04-06T11:52:23;96688.00;;;12.03;42.86
21361;BME280;10839;43.206;23.550;2023-04-06T11:54:51;96693.88;;;11.93;42.63
21361;BME280;10839;43.206;23.550;2023-04-06T11:57:19;96684.13;;;11.22;44.55
21361;BME280;10839;43.206;23.550;2023-04-06T11:59:45;96682.06;;;11.94;43.15
21361;BME280;10839;43.206;23.550;2023-04-06T12:02:11;96667.38;;;12.52;42.45
21361;BME280;10839;43.206;23.550;2023-04-06T12:04:38;96680.59;;;11.92;42.32
21361;BME280;10839;43.206;23.550;2023-04-06T12:07:04;96684.69;;;11.50;43.40
21361;BME280;10839;43.206;23.550;2023-04-06T12:09:30;96672.44;;;11.67;43.01
21361;BME280;10839;43.206;23.550;2023-04-06T12:11:57;96674.56;;;11.96;42.58
21361;BME280;10839;43.206;23.550;2023-04-06T12:14:23;96680.72;;;11.59;42.72
21361;BME280;10839;43.206;23.550;2023-04-06T12:16:49;96683.66;;;11.44;44.01
21361;BME280;10839;43.206;23.550;2023-04-06T12:19:15;96675.28;;;11.79;42.86
21361;BME280;10839;43.206;23.550;2023-04-06T12:21:41;96672.22;;;11.69;43.21
21361;BME280;10839;43.206;23.550;2023-04-06T12:24:07;96673.75;;;11.32;43.59
21361;BME280;10839;43.206;23.550;2023-04-06T12:26:34;96678.31;;;11.25;44.16
21361;BME280;10839;43.206;23.550;2023-04-06T12:29:00;96669.13;;;11.52;44.19
21361;BME280;10839;43.206;23.550;2023-04-06T12:31:35;96671.19;;;11.50;44.17
21361;BME280;10839;43.206;23.550;2023-04-06T12:34:02;96679.97;;;11.32;44.10
21361;BME280;10839;43.206;23.550;2023-04-06T12:36:29;96676.31;;;10.75;45.56
21361;BME280;10839;43.206;23.550;2023-04-06T12:38:55;96680.38;;;11.23;45.08
21361;BME280;10839;43.206;23.550;2023-04-06T12:41:21;96682.88;;;11.18;45.35
21361;BME280;10839;43.206;23.550;2023-04-06T12:43:48;96678.78;;;11.02;45.93
21361;BME280;10839;43.206;23.550;2023-04-06T12:46:15;96680.00;;;11.00;45.50
21361;BME280;10839;43.206;23.550;2023-04-06T12:48:41;96672.91;;;11.38;44.33
21361;BME280;10839;43.206;23.550;2023-04-06T12:51:07;96675.47;;;11.00;44.46
21361;BME280;10839;43.206;23.550;2023-04-06T12:53:34;96676.31;;;10.55;46.50
21361;BME280;10839;43.206;23.550;2023-04-06T12:56:01;96675.91;;;10.78;45.46
21361;BME280;10839;43.206;23.550;2023-04-06T12:58:27;96682.50;;;10.82;45.18
21361;BME280;10839;43.206;23.550;2023-04-06T13:00:55;96678.56;;;10.52;45.85
21361;BME280;10839;43.206;23.550;2023-04-06T13:03:23;96678.19;;;10.55;45.87
21361;BME280;10839;43.206;23.550;2023-04-06T13:05:50;96676.94;;;10.77;46.28